Time;durP1;ratioP1;P1;durP2;ratioP2;P2;SDS_P1;SDS_P2;PMS_P1;PMS_P2;Temp;Humidity;BMP_temperature;BMP_pressure;BME280_temperature;BME280_humidity;BME280_pressure;Samples;Min_cycle;Max_cycle;Signal;HPM_P1;HPM_P2
2022/11/13 00:01:40;;;;;;;25.10;15.85;;;7.40;99.90;;;;;;5112420;28;20054;-51
2022/11/13 00:04:06;;;;;;;23.55;16.48;;;7.40;99.90;;;;;;5111251;28;20042;-46
2022/11/13 00:06:31;;;;;;;21.42;15.23;;;7.60;99.90;;;;;;5111888;28;20114;-49
2022/11/13 00:08:57;;;;;;;21.38;15.70;;;7.50;99.90;;;;;;5091354;28;20032;-48
2022/11/13 00:11:23;;;;;;;21.88;15.25;;;7.60;99.90;;;;;;5110759;28;20051;-47
2022/11/13 00:13:49;;;;;;;22.40;15.10;;;7.70;99.90;;;;;;5111793;27;20039;-51
2022/11/13 00:16:19;;;;;;;20.90;15.70;;;7.60;99.90;;;;;;5111731;27;20531;-48
2022/11/13 00:18:46;;;;;;;21.20;15.30;;;7.60;99.90;;;;;;5110179;28;20128;-48
2022/11/13 00:21:17;;;;;;;22.15;14.68;;;7.60;99.90;;;;;;5111384;28;20584;-50
2022/11/13 00:23:42;;;;;;;21.80;15.48;;;7.60;99.90;;;;;;5111303;28;20489;-50
2022/11/13 00:26:09;;;;;;;21.48;16.42;;;7.60;99.90;;;;;;5110556;28;20036;-47
2022/11/13 00:28:35;;;;;;;20.25;14.50;;;7.50;99.90;;;;;;5109645;27;20490;-46
2022/11/13 00:31:02;;;;;;;20.63;14.52;;;7.30;99.90;;;;;;5093576;28;20081;-50
2022/11/13 00:33:28;;;;;;;19.60;14.07;;;7.50;99.90;;;;;;5112674;27;20032;-49
2022/11/13 00:35:53;;;;;;;20.83;15.57;;;7.30;99.90;;;;;;5111773;27;20058;-48
2022/11/13 00:38:19;;;;;;;22.92;15.30;;;7.40;99.90;;;;;;5111145;28;20085;-47
2022/11/13 00:40:45;;;;;;;23.48;15.13;;;7.40;99.90;;;;;;5112026;28;20028;-48
2022/11/13 00:43:10;;;;;;;22.48;15.45;;;7.40;99.90;;;;;;5111658;27;20059;-47
2022/11/13 00:45:36;;;;;;;20.98;15.02;;;7.40;99.90;;;;;;5112434;27;20397;-47
2022/11/13 00:48:02;;;;;;;19.95;14.82;;;7.60;99.90;;;;;;5111455;27;20035;-51
2022/11/13 00:50:27;;;;;;;22.77;15.73;;;7.40;99.90;;;;;;5111531;27;20083;-49
2022/11/13 00:52:53;;;;;;;20.08;14.98;;;7.40;99.90;;;;;;5110955;28;20115;-46
2022/11/13 00:55:19;;;;;;;21.60;14.38;;;7.40;99.90;;;;;;5111192;28;20039;-46
2022/11/13 00:57:44;;;;;;;19.42;14.18;;;7.30;99.90;;;;;;5111304;28;20035;-47
2022/11/13 01:00:11;;;;;;;20.35;14.52;;;7.50;99.90;;;;;;5110605;27;20077;-47
2022/11/13 01:02:36;;;;;;;21.95;13.93;;;7.40;99.90;;;;;;5110835;28;20130;-47
2022/11/13 01:05:02;;;;;;;19.65;13.68;;;7.50;99.90;;;;;;5110415;28;20139;-47
2022/11/13 01:07:28;;;;;;;21.55;14.63;;;7.30;99.90;;;;;;5110394;28;20035;-49
2022/11/13 01:09:53;;;;;;;21.30;15.73;;;7.20;99.90;;;;;;5092541;28;20406;-47
2022/11/13 01:12:19;;;;;;;22.38;14.35;;;7.30;99.90;;;;;;5111621;28;20368;-47
2022/11/13 01:14:45;;;;;;;20.30;14.77;;;7.30;99.90;;;;;;5111894;28;20195;-47
2022/11/13 01:17:10;;;;;;;23.02;14.27;;;7.30;99.90;;;;;;5092872;28;20051;-47
2022/11/13 01:19:36;;;;;;;19.60;15.10;;;7.40;99.90;;;;;;5111334;28;20032;-48
2022/11/13 01:22:02;;;;;;;20.90;14.48;;;7.40;99.90;;;;;;5112832;28;20108;-49
2022/11/13 01:24:27;;;;;;;22.52;14.40;;;7.40;99.90;;;;;;5115401;27;20035;-46
2022/11/13 01:26:53;;;;;;;19.52;14.52;;;7.30;99.90;;;;;;5095736;28;20483;-50
2022/11/13 01:29:19;;;;;;;20.52;14.15;;;7.30;99.90;;;;;;5096891;28;20109;-47
2022/11/13 01:31:44;;;;;;;20.98;14.57;;;7.40;99.90;;;;;;5114743;28;20043;-47
2022/11/13 01:34:10;;;;;;;19.13;14.10;;;7.60;99.90;;;;;;5114006;28;20324;-47
2022/11/13 01:36:35;;;;;;;21.52;15.68;;;7.30;99.90;;;;;;5116406;27;20106;-49
2022/11/13 01:39:01;;;;;;;19.83;13.60;;;7.30;99.90;;;;;;5096992;28;20039;-46
2022/11/13 01:41:32;;;;;;;21.58;15.05;;;7.40;99.90;;;;;;5097184;28;20043;-47
2022/11/13 01:44:00;;;;;;;19.23;14.18;;;7.40;99.90;;;;;;5116483;27;20027;-47
2022/11/13 01:46:31;;;;;;;21.63;13.02;;;7.40;99.90;;;;;;5115202;27;20063;-50
2022/11/13 01:49:19;;;;;;;23.52;13.95;;;7.20;99.90;;;;;;5116318;27;20039;-48
2022/11/13 01:51:51;;;;;;;19.20;12.77;;;7.10;99.90;;;;;;5113776;27;20152;-48
2022/11/13 01:54:21;;;;;;;20.40;13.95;;;7.30;99.90;;;;;;5114906;27;20478;-47
2022/11/13 01:56:48;;;;;;;19.52;13.38;;;7.20;99.90;;;;;;5114973;27;20042;-49
2022/11/13 01:59:27;;;;;;;19.65;13.57;;;7.20;99.90;;;;;;5115263;27;20079;-49
2022/11/13 02:01:55;;;;;;;19.73;13.13;;;7.10;99.90;;;;;;5096122;28;20031;-48
2022/11/13 02:04:21;;;;;;;18.25;13.50;;;7.10;99.90;;;;;;5115256;27;20027;-50
2022/11/13 02:07:20;;;;;;;18.95;12.93;;;7.20;99.90;;;;;;5112277;28;20032;-49
2022/11/13 02:09:48;;;;;;;20.77;13.50;;;7.00;99.90;;;;;;5080138;27;20052;-47
2022/11/13 02:12:20;;;;;;;18.38;13.00;;;7.20;99.90;;;;;;5114610;27;20039;-47
2022/11/13 02:14:51;;;;;;;18.50;13.70;;;7.00;99.90;;;;;;5113898;27;20415;-47
2022/11/13 02:17:26;;;;;;;19.40;13.38;;;7.10;99.90;;;;;;5114569;27;20368;-49
2022/11/13 02:19:57;;;;;;;19.20;14.02;;;7.20;99.90;;;;;;5113389;27;20040;-49
2022/11/13 02:22:36;;;;;;;20.35;13.45;;;8.40;99.90;;;;;;5113800;27;20023;-49
2022/11/13 02:25:03;;;;;;;20.05;13.73;;;7.00;99.90;;;;;;5112914;27;20032;-50
2022/11/13 02:27:38;;;;;;;19.83;13.52;;;7.10;99.90;;;;;;5113969;27;20470;-47
2022/11/13 02:30:23;;;;;;;21.88;13.15;;;7.00;99.90;;;;;;5113379;27;20090;-48
2022/11/13 02:32:51;;;;;;;20.90;14.10;;;7.00;99.90;;;;;;5113313;27;20039;-49
2022/11/13 02:35:25;;;;;;;18.50;13.05;;;7.40;99.90;;;;;;5113445;28;20074;-47
2022/11/13 02:37:51;;;;;;;20.20;13.27;;;7.00;99.90;;;;;;5113769;27;20063;-48
2022/11/13 02:40:18;;;;;;;21.58;13.15;;;6.90;99.90;;;;;;5112888;27;20032;-47
2022/11/13 02:42:43;;;;;;;19.08;12.60;;;7.00;99.90;;;;;;5096106;28;20035;-47
2022/11/13 02:45:09;;;;;;;18.98;13.90;;;7.00;99.90;;;;;;5115181;27;20088;-47
2022/11/13 02:47:35;;;;;;;19.15;12.75;;;6.90;99.90;;;;;;5101710;28;20084;-48
2022/11/13 02:50:02;;;;;;;22.13;14.43;;;6.80;99.90;;;;;;5115031;27;20039;-47
2022/11/13 02:52:29;;;;;;;19.42;13.45;;;6.80;99.90;;;;;;5113891;27;20043;-48
2022/11/13 02:54:55;;;;;;;22.00;13.65;;;6.90;99.90;;;;;;5114579;27;20031;-48
2022/11/13 02:57:20;;;;;;;19.52;13.43;;;7.00;99.90;;;;;;5113028;28;20776;-47
2022/11/13 02:59:46;;;;;;;19.23;13.00;;;6.80;99.90;;;;;;5112707;28;20084;-50
2022/11/13 03:02:12;;;;;;;20.10;12.98;;;6.70;99.90;;;;;;5112869;28;20049;-51
2022/11/13 03:04:37;;;;;;;21.83;13.13;;;6.70;99.90;;;;;;5112732;28;21330;-52
2022/11/13 03:07:03;;;;;;;20.10;13.00;;;6.90;99.90;;;;;;5115330;27;20081;-47
2022/11/13 03:09:29;;;;;;;20.05;12.63;;;6.80;99.90;;;;;;5113798;27;20044;-47
2022/11/13 03:11:55;;;;;;;18.73;12.23;;;6.70;99.90;;;;;;5114047;27;20059;-46
2022/11/13 03:14:20;;;;;;;19.40;12.75;;;6.80;99.90;;;;;;5112443;28;20386;-46
2022/11/13 03:16:46;;;;;;;16.13;11.98;;;6.70;99.90;;;;;;5113019;27;20040;-46
2022/11/13 03:19:12;;;;;;;18.25;12.68;;;6.70;99.90;;;;;;5094879;28;20474;-46
2022/11/13 03:21:39;;;;;;;19.27;13.15;;;6.70;99.90;;;;;;5113044;27;20054;-48
2022/11/13 03:24:05;;;;;;;18.92;13.10;;;6.70;99.90;;;;;;5113319;27;20115;-46
2022/11/13 03:26:30;;;;;;;19.85;12.52;;;6.50;99.90;;;;;;5112683;28;20151;-50
2022/11/13 03:28:56;;;;;;;18.73;12.30;;;6.50;99.90;;;;;;5112876;27;20061;-48
2022/11/13 03:31:22;;;;;;;20.92;12.85;;;6.50;99.90;;;;;;5112495;28;20031;-48
2022/11/13 03:33:47;;;;;;;18.40;12.13;;;6.70;99.90;;;;;;5111756;28;20032;-46
2022/11/13 03:36:13;;;;;;;18.35;11.82;;;6.70;99.90;;;;;;5110890;28;20065;-47
2022/11/13 03:38:39;;;;;;;18.15;12.15;;;6.70;99.90;;;;;;5077345;28;20481;-48
2022/11/13 03:41:05;;;;;;;19.73;12.88;;;6.50;99.90;;;;;;5114479;27;20114;-47
2022/11/13 03:43:30;;;;;;;24.45;12.80;;;6.60;99.90;;;;;;5094890;28;20436;-48
2022/11/13 03:45:56;;;;;;;20.05;13.05;;;6.60;99.90;;;;;;5113870;27;20035;-48
2022/11/13 03:48:22;;;;;;;19.05;12.18;;;6.60;99.90;;;;;;5113540;27;20043;-48
2022/11/13 03:50:51;;;;;;;20.42;11.60;;;6.40;99.90;;;;;;5112025;28;20040;-47
2022/11/13 03:53:17;;;;;;;18.38;12.68;;;6.30;99.90;;;;;;5111819;28;20040;-49
2022/11/13 03:55:44;;;;;;;17.20;12.25;;;6.50;99.90;;;;;;5113499;27;20042;-49
2022/11/13 03:58:10;;;;;;;17.88;12.48;;;6.40;99.90;;;;;;5112862;27;20040;-51
2022/11/13 04:00:36;;;;;;;16.92;12.02;;;6.30;99.90;;;;;;5113797;27;20043;-47
2022/11/13 04:03:02;;;;;;;19.10;11.77;;;6.50;99.90;;;;;;5112794;27;20069;-48
2022/11/13 04:05:28;;;;;;;16.98;12.13;;;6.50;99.90;;;;;;5111179;28;20039;-47
2022/11/13 04:07:54;;;;;;;20.13;12.93;;;6.20;99.90;;;;;;5109891;28;20043;-49
2022/11/13 04:10:20;;;;;;;18.17;12.00;;;6.30;99.90;;;;;;5105581;28;20047;-48
2022/11/13 04:12:45;;;;;;;18.13;11.57;;;6.30;99.90;;;;;;5110784;28;20517;-46
2022/11/13 04:15:11;;;;;;;16.35;11.10;;;6.20;99.90;;;;;;5109908;28;20080;-46
2022/11/13 04:17:37;;;;;;;16.38;11.35;;;6.10;99.90;;;;;;5106852;28;20112;-46
2022/11/13 04:20:03;;;;;;;18.35;11.63;;;6.50;99.90;;;;;;5110616;28;20035;-45
2022/11/13 04:22:29;;;;;;;19.55;12.00;;;6.10;99.90;;;;;;5109427;28;20042;-48
2022/11/13 04:24:54;;;;;;;20.60;12.23;;;6.10;99.90;;;;;;5110739;28;20382;-46
2022/11/13 04:27:20;;;;;;;18.70;12.25;;;6.30;99.90;;;;;;5093330;28;20118;-45
2022/11/13 04:29:46;;;;;;;17.80;11.90;;;6.20;99.90;;;;;;5111448;28;20041;-47
2022/11/13 04:32:11;;;;;;;19.25;12.75;;;6.10;99.90;;;;;;5092818;28;20118;-46
2022/11/13 04:34:37;;;;;;;20.73;11.48;;;6.20;99.90;;;;;;5111250;28;20402;-48
2022/11/13 04:37:03;;;;;;;16.35;11.45;;;6.10;99.90;;;;;;5111184;28;20526;-46
2022/11/13 04:39:29;;;;;;;18.00;11.95;;;6.10;99.90;;;;;;5110703;28;20552;-46
2022/11/13 04:44:38;;;;;;;18.92;12.35;;;6.20;99.90;;;;;;5112156;27;20077;-47
2022/11/13 04:47:04;;;;;;;21.98;12.75;;;6.10;99.90;;;;;;5112577;27;20114;-46
2022/11/13 04:49:30;;;;;;;19.38;11.73;;;6.20;99.90;;;;;;5112594;28;20494;-46
2022/11/13 04:51:55;;;;;;;20.38;12.00;;;6.10;99.90;;;;;;5112219;28;20066;-49
2022/11/13 04:54:21;;;;;;;17.73;12.20;;;6.20;99.90;;;;;;5112005;27;20039;-46
2022/11/13 04:56:47;;;;;;;17.95;12.13;;;6.20;99.90;;;;;;5094789;27;20040;-46
2022/11/13 04:59:13;;;;;;;19.33;12.73;;;5.90;99.90;;;;;;5111770;27;20057;-50
2022/11/13 05:01:38;;;;;;;18.27;11.85;;;6.20;99.90;;;;;;5111900;28;20040;-48
2022/11/13 05:04:04;;;;;;;18.55;11.77;;;6.10;99.90;;;;;;5112426;27;20435;-48
2022/11/13 05:06:31;;;;;;;17.98;12.20;;;6.20;99.90;;;;;;5111583;28;20039;-47
2022/11/13 05:08:56;;;;;;;18.27;11.80;;;6.00;99.90;;;;;;5111907;27;20080;-47
2022/11/13 05:11:22;;;;;;;19.67;11.88;;;5.90;99.90;;;;;;5109566;28;20043;-49
2022/11/13 05:13:48;;;;;;;19.35;13.13;;;6.00;99.90;;;;;;5111624;28;20394;-47
2022/11/13 05:16:14;;;;;;;18.73;11.57;;;6.20;99.90;;;;;;5111413;28;20106;-46
2022/11/13 05:18:40;;;;;;;17.60;12.68;;;6.00;99.90;;;;;;5111045;28;20055;-47
2022/11/13 05:21:07;;;;;;;17.70;11.90;;;5.90;99.90;;;;;;5111405;28;20384;-46
2022/11/13 05:23:34;;;;;;;18.15;11.50;;;6.00;99.90;;;;;;5111006;28;20438;-45
2022/11/13 05:26:02;;;;;;;18.35;12.07;;;6.10;99.90;;;;;;5111184;28;20038;-46
2022/11/13 05:28:27;;;;;;;19.77;11.65;;;5.90;99.90;;;;;;5110691;28;20047;-46
2022/11/13 05:31:01;;;;;;;18.13;12.38;;;6.10;99.90;;;;;;5092510;28;20088;-47
2022/11/13 05:33:27;;;;;;;19.27;11.80;;;6.10;99.90;;;;;;5109303;28;20118;-45
2022/11/13 05:35:53;;;;;;;19.83;11.95;;;5.90;99.90;;;;;;5106346;28;20046;-47
2022/11/13 05:38:19;;;;;;;19.27;11.95;;;5.80;99.90;;;;;;5103916;28;20295;-46
2022/11/13 05:40:44;;;;;;;18.77;12.40;;;5.80;99.90;;;;;;5084317;28;20036;-48
2022/11/13 05:43:10;;;;;;;20.20;12.05;;;5.80;99.90;;;;;;5107286;28;20036;-47
2022/11/13 05:45:35;;;;;;;17.90;11.40;;;6.30;99.90;;;;;;5110307;28;20043;-46
2022/11/13 05:48:01;;;;;;;19.42;11.65;;;6.10;99.90;;;;;;5110263;28;20054;-47
2022/11/13 05:50:27;;;;;;;19.00;11.63;;;6.00;99.90;;;;;;5110605;28;20122;-46
2022/11/13 05:52:52;;;;;;;19.77;11.98;;;6.00;99.90;;;;;;5109889;28;20176;-47
2022/11/13 05:55:18;;;;;;;18.17;10.60;;;5.80;99.90;;;;;;5110805;28;20382;-46
2022/11/13 05:57:44;;;;;;;17.23;11.55;;;5.90;99.90;;;;;;5110811;28;20070;-46
2022/11/13 06:00:10;;;;;;;19.58;11.82;;;6.10;99.90;;;;;;5110584;28;20051;-48
2022/11/13 06:02:36;;;;;;;17.98;11.68;;;5.80;99.90;;;;;;5110371;28;20051;-46
2022/11/13 06:05:01;;;;;;;17.42;11.85;;;5.70;99.90;;;;;;5110979;28;20112;-48
2022/11/13 06:07:27;;;;;;;17.92;11.40;;;5.70;99.90;;;;;;5111428;28;20551;-47
2022/11/13 06:09:52;;;;;;;15.45;10.98;;;5.80;99.90;;;;;;5113675;27;20389;-49
2022/11/13 06:12:18;;;;;;;17.10;11.75;;;5.80;99.90;;;;;;5114974;27;20388;-52
2022/11/13 06:14:44;;;;;;;16.27;11.05;;;5.90;99.90;;;;;;5114693;27;20043;-48
2022/11/13 06:17:09;;;;;;;18.67;11.10;;;5.80;99.90;;;;;;5114106;27;20075;-49
2022/11/13 06:19:35;;;;;;;18.25;10.65;;;5.50;99.90;;;;;;5108590;28;20040;-49
2022/11/13 06:22:01;;;;;;;18.02;10.98;;;5.50;99.90;;;;;;5114492;27;20032;-48
2022/11/13 06:24:26;;;;;;;16.35;10.50;;;5.60;99.90;;;;;;5095149;28;20077;-46
2022/11/13 06:26:52;;;;;;;17.73;10.65;;;5.50;99.90;;;;;;5113312;28;20110;-47
2022/11/13 06:29:18;;;;;;;15.85;10.30;;;5.60;99.90;;;;;;5095412;28;20032;-46
2022/11/13 06:31:43;;;;;;;19.52;10.90;;;5.60;99.90;;;;;;5113524;28;20122;-47
2022/11/13 06:34:09;;;;;;;16.77;10.50;;;5.50;99.90;;;;;;5113312;28;20398;-50
2022/11/13 06:36:36;;;;;;;17.77;10.82;;;5.50;99.90;;;;;;5114352;27;20471;-46
2022/11/13 06:39:05;;;;;;;18.17;11.48;;;5.50;99.90;;;;;;5114336;27;20089;-47
2022/11/13 06:41:31;;;;;;;19.20;11.68;;;5.40;99.90;;;;;;5114738;27;20111;-49
2022/11/13 06:43:58;;;;;;;18.17;11.23;;;5.50;99.90;;;;;;5103400;28;20123;-48
2022/11/13 06:46:26;;;;;;;20.33;11.88;;;5.40;99.90;;;;;;5114352;27;20035;-48
2022/11/13 06:48:52;;;;;;;16.77;10.80;;;5.40;99.90;;;;;;5114731;27;20047;-50
2022/11/13 06:51:20;;;;;;;19.95;11.75;;;5.40;99.90;;;;;;5114181;27;20088;-48
2022/11/13 06:53:47;;;;;;;17.48;11.52;;;5.50;99.90;;;;;;5115709;27;20031;-47
2022/11/13 06:56:13;;;;;;;20.25;12.95;;;5.30;99.90;;;;;;5095992;28;20180;-46
2022/11/13 06:58:38;;;;;;;19.70;12.77;;;5.30;99.90;;;;;;5114610;27;20118;-48
2022/11/13 07:01:16;;;;;;;19.27;11.85;;;5.40;99.90;;;;;;5114352;27;20074;-46
2022/11/13 07:03:42;;;;;;;20.48;11.68;;;5.40;99.90;;;;;;5114146;27;20031;-46
2022/11/13 07:06:13;;;;;;;17.67;11.77;;;5.60;99.90;;;;;;5114935;27;20039;-46
2022/11/13 07:08:43;;;;;;;20.98;12.82;;;5.40;99.90;;;;;;5113237;27;20035;-46
2022/11/13 07:11:14;;;;;;;19.38;12.88;;;5.70;99.90;;;;;;5112675;28;20046;-48
2022/11/13 07:13:40;;;;;;;19.80;12.57;;;5.40;99.90;;;;;;5095436;28;20039;-52
2022/11/13 07:16:08;;;;;;;18.63;12.13;;;5.50;99.90;;;;;;5113643;27;20382;-48
2022/11/13 07:18:34;;;;;;;18.35;11.93;;;5.50;99.90;;;;;;5111728;28;20032;-47
2022/11/13 07:21:05;;;;;;;18.70;12.23;;;5.40;99.90;;;;;;5113441;27;20036;-48
2022/11/13 07:23:31;;;;;;;21.13;13.63;;;5.40;99.90;;;;;;5113516;27;20122;-48
2022/11/13 07:25:57;;;;;;;21.42;12.93;;;5.60;99.90;;;;;;5113243;27;20106;-48
2022/11/13 07:28:22;;;;;;;22.70;14.35;;;5.40;99.90;;;;;;5113083;27;20558;-49
2022/11/13 07:30:48;;;;;;;22.98;13.85;;;5.40;99.90;;;;;;5112342;28;20036;-48
2022/11/13 07:33:14;;;;;;;21.02;13.38;;;5.80;99.90;;;;;;5113719;27;20122;-49
2022/11/13 07:35:40;;;;;;;23.95;14.00;;;5.70;99.90;;;;;;5113729;27;20039;-53
2022/11/13 07:38:06;;;;;;;21.67;13.20;;;5.50;99.90;;;;;;5113678;27;20042;-51
2022/11/13 07:40:31;;;;;;;19.20;12.93;;;5.80;99.90;;;;;;5113943;27;20411;-48
2022/11/13 07:43:01;;;;;;;20.48;13.25;;;5.70;99.90;;;;;;5113044;27;20531;-47
2022/11/13 07:45:28;;;;;;;22.23;13.73;;;5.80;99.90;;;;;;5114308;27;20042;-49
2022/11/13 07:47:58;;;;;;;20.10;13.75;;;5.80;99.90;;;;;;5112916;27;20039;-47
2022/11/13 07:50:25;;;;;;;22.77;14.93;;;5.50;99.90;;;;;;5113779;27;20079;-48
2022/11/13 07:52:55;;;;;;;22.40;14.68;;;5.70;99.90;;;;;;5112909;27;20066;-48
2022/11/13 07:55:21;;;;;;;20.67;14.90;;;5.60;99.90;;;;;;5111921;28;20107;-48
2022/11/13 07:57:46;;;;;;;24.00;13.93;;;5.70;99.90;;;;;;5111647;28;20431;-48
2022/11/13 08:00:13;;;;;;;21.50;14.55;;;5.90;99.90;;;;;;5111563;28;20136;-47
2022/11/13 08:02:38;;;;;;;22.65;15.35;;;5.70;99.90;;;;;;5076376;28;20087;-48
2022/11/13 08:05:04;;;;;;;21.00;13.95;;;5.80;99.90;;;;;;5107711;28;20078;-48
2022/11/13 08:07:30;;;;;;;28.25;14.88;;;5.90;99.90;;;;;;5105292;28;20508;-47
2022/11/13 08:09:56;;;;;;;23.77;14.98;;;6.20;99.90;;;;;;5110894;28;20397;-48
2022/11/13 08:12:21;;;;;;;20.42;14.25;;;6.20;99.90;;;;;;5112883;27;20494;-49
2022/11/13 08:14:47;;;;;;;22.17;14.68;;;6.10;99.90;;;;;;5093836;28;21324;-48
2022/11/13 08:17:12;;;;;;;20.50;13.95;;;6.10;99.90;;;;;;5109382;27;20472;-48
2022/11/13 08:19:38;;;;;;;23.40;15.00;;;6.30;99.90;;;;;;5108710;27;20127;-48
2022/11/13 08:22:04;;;;;;;20.40;13.52;;;6.40;99.90;;;;;;5108410;28;21021;-48
2022/11/13 08:24:29;;;;;;;19.83;14.00;;;6.50;99.90;;;;;;5103945;28;20035;-49
2022/11/13 08:26:56;;;;;;;20.20;13.73;;;6.70;99.90;;;;;;5080389;28;20050;-48
2022/11/13 08:29:21;;;;;;;21.77;13.98;;;6.70;99.90;;;;;;5102024;27;20131;-51
2022/11/13 08:31:47;;;;;;;19.60;13.45;;;6.90;99.90;;;;;;5070631;28;20070;-48
2022/11/13 08:34:13;;;;;;;21.05;13.95;;;6.90;99.90;;;;;;5109288;27;20071;-49
2022/11/13 08:36:39;;;;;;;21.40;13.43;;;6.90;99.90;;;;;;5105513;27;20435;-51
2022/11/13 08:39:04;;;;;;;18.90;12.50;;;7.10;99.90;;;;;;5101213;27;20039;-50
2022/11/13 08:41:30;;;;;;;17.10;11.38;;;7.10;99.90;;;;;;5103131;28;20028;-51
2022/11/13 08:43:56;;;;;;;17.58;12.00;;;7.20;99.90;;;;;;5100734;27;20037;-50
2022/11/13 08:46:21;;;;;;;16.73;12.07;;;7.30;99.90;;;;;;5106726;28;20034;-49
2022/11/13 08:48:47;;;;;;;19.15;12.50;;;7.40;99.90;;;;;;5105499;28;20118;-49
2022/11/13 08:51:13;;;;;;;15.50;11.60;;;7.70;99.90;;;;;;5104150;28;20047;-47
2022/11/13 08:53:38;;;;;;;17.30;11.40;;;7.50;99.90;;;;;;5100621;28;20047;-49
2022/11/13 08:56:04;;;;;;;16.08;11.77;;;7.60;99.90;;;;;;5101568;28;20126;-49
2022/11/13 08:58:30;;;;;;;14.95;11.18;;;7.70;99.90;;;;;;5089240;28;20135;-47
2022/11/13 09:01:03;;;;;;;15.23;11.93;;;7.70;99.90;;;;;;5090519;28;20073;-48
2022/11/13 09:03:29;;;;;;;16.63;11.55;;;7.90;99.90;;;;;;5105809;28;20721;-47
2022/11/13 09:05:54;;;;;;;16.85;11.27;;;7.90;99.90;;;;;;5085960;28;20051;-48
2022/11/13 09:08:20;;;;;;;17.13;11.63;;;8.10;99.90;;;;;;5103413;28;20093;-47
2022/11/13 09:10:46;;;;;;;15.65;11.15;;;8.20;99.90;;;;;;5100704;28;20039;-49
2022/11/13 09:13:12;;;;;;;14.18;10.73;;;7.50;99.90;;;;;;5095662;28;20043;-49
2022/11/13 09:15:38;;;;;;;15.10;10.77;;;8.40;99.90;;;;;;5102093;28;20043;-47
2022/11/13 09:18:04;;;;;;;15.32;10.80;;;8.50;99.90;;;;;;5104187;28;20498;-48
2022/11/13 09:20:31;;;;;;;15.48;10.02;;;8.60;99.90;;;;;;5102181;28;20521;-49
2022/11/13 09:22:59;;;;;;;15.10;10.38;;;8.70;99.90;;;;;;5100743;28;20040;-48
2022/11/13 09:25:25;;;;;;;14.40;10.07;;;8.80;99.90;;;;;;5098982;28;20040;-48
2022/11/13 09:27:53;;;;;;;14.40;9.70;;;8.90;99.90;;;;;;5097738;28;20126;-48
2022/11/13 09:30:19;;;;;;;12.55;9.90;;;8.90;99.90;;;;;;5096832;28;20576;-48
2022/11/13 09:32:44;;;;;;;14.07;9.63;;;8.90;99.90;;;;;;5104077;28;20126;-50
2022/11/13 09:35:10;;;;;;;13.52;10.48;;;9.20;99.90;;;;;;5101625;28;20123;-47
2022/11/13 09:37:36;;;;;;;15.55;10.02;;;9.00;99.90;;;;;;5098799;28;20107;-47
2022/11/13 09:40:02;;;;;;;13.30;9.77;;;9.00;99.90;;;;;;5098066;28;20576;-48
2022/11/13 09:42:29;;;;;;;14.18;9.70;;;9.10;99.90;;;;;;5103205;28;20036;-49
2022/11/13 09:45:06;;;;;;;14.02;10.02;;;9.20;99.90;;;;;;5109495;28;20072;-48
2022/11/13 09:47:41;;;;;;;13.68;10.32;;;9.20;99.90;;;;;;5107971;28;20035;-50
2022/11/13 09:50:23;;;;;;;13.07;9.60;;;9.20;99.90;;;;;;5092596;28;20036;-49
2022/11/13 09:52:50;;;;;;;16.13;9.20;;;9.30;99.90;;;;;;5105635;27;20047;-47
2022/11/13 09:55:19;;;;;;;14.15;10.20;;;9.40;99.90;;;;;;5104863;28;20035;-47
2022/11/13 09:58:01;;;;;;;14.55;10.18;;;9.50;99.90;;;;;;5107076;28;20035;-49
2022/11/13 10:00:28;;;;;;;12.02;8.80;;;9.70;99.90;;;;;;5106743;28;20060;-47
2022/11/13 10:03:15;;;;;;;12.95;8.93;;;10.20;99.90;;;;;;5108030;28;20082;-48
2022/11/13 10:05:52;;;;;;;12.60;8.65;;;10.70;99.90;;;;;;5105835;28;20054;-49
2022/11/13 10:08:20;;;;;;;15.13;9.02;;;11.30;99.90;;;;;;5106403;28;20421;-52
2022/11/13 10:10:45;;;;;;;10.52;8.20;;;11.70;99.90;;;;;;5107675;28;20036;-49
2022/11/13 10:13:17;;;;;;;12.25;9.02;;;12.10;99.90;;;;;;5108809;28;20062;-47
2022/11/13 10:15:48;;;;;;;10.15;8.18;;;12.50;99.90;;;;;;5105458;28;20035;-48
2022/11/13 10:18:24;;;;;;;10.40;8.55;;;12.40;99.90;;;;;;5106874;28;20363;-49
2022/11/13 10:20:59;;;;;;;10.85;8.20;;;12.80;99.90;;;;;;5103995;28;20043;-49
2022/11/13 10:23:30;;;;;;;11.15;8.43;;;13.00;99.90;;;;;;5105452;28;20551;-49
2022/11/13 10:26:10;;;;;;;10.85;8.65;;;13.30;99.90;;;;;;5108925;28;20482;-48
2022/11/13 10:28:38;;;;;;;9.57;7.50;;;13.30;99.90;;;;;;5107788;28;20158;-50
2022/11/13 10:31:03;;;;;;;10.63;7.80;;;13.50;99.90;;;;;;5101894;28;20047;-47
2022/11/13 10:33:29;;;;;;;10.13;8.57;;;13.50;99.90;;;;;;5073860;28;20108;-49
2022/11/13 10:35:58;;;;;;;11.85;8.63;;;13.70;99.90;;;;;;5107370;28;20039;-47
2022/11/13 10:38:32;;;;;;;11.38;8.18;;;13.70;99.90;;;;;;5089524;28;20052;-51
2022/11/13 10:41:17;;;;;;;11.52;8.93;;;13.70;99.90;;;;;;5088047;28;20110;-47
2022/11/13 10:43:53;;;;;;;13.07;8.60;;;13.60;99.90;;;;;;5106534;28;20047;-49
2022/11/13 10:46:24;;;;;;;9.27;7.70;;;13.20;99.90;;;;;;5104461;28;20489;-50
2022/11/13 10:48:50;;;;;;;10.05;7.93;;;12.90;99.90;;;;;;5110880;28;20050;-52
2022/11/13 10:51:33;;;;;;;10.45;7.72;;;12.90;99.90;;;;;;5110908;28;20036;-50
2022/11/13 10:53:59;;;;;;;9.43;7.75;;;12.50;99.90;;;;;;5107327;28;20122;-52
2022/11/13 10:56:33;;;;;;;11.52;8.32;;;12.80;99.90;;;;;;5105795;28;20126;-47
2022/11/13 10:59:16;;;;;;;9.73;7.85;;;12.50;99.90;;;;;;5110822;28;20036;-48
2022/11/13 11:01:44;;;;;;;12.23;8.40;;;12.50;99.90;;;;;;5106507;28;20391;-49
2022/11/13 11:04:26;;;;;;;10.70;7.45;;;12.80;99.90;;;;;;5110714;28;20090;-50
2022/11/13 11:06:53;;;;;;;10.27;7.32;;;13.30;99.90;;;;;;5084668;28;20040;-50
2022/11/13 11:09:29;;;;;;;11.05;8.35;;;13.80;99.90;;;;;;5111364;28;20044;-47
2022/11/13 11:12:17;;;;;;;10.48;8.40;;;14.00;99.90;;;;;;5110123;28;20036;-50
2022/11/13 11:15:02;;;;;;;10.15;8.13;;;14.50;99.90;;;;;;5090977;28;20046;-48
2022/11/13 11:17:32;;;;;;;;;;;14.80;99.90;;;;;;5112784;28;20047;-50
2022/11/13 11:20:06;;;;;;;11.32;8.20;;;15.20;99.90;;;;;;5110093;28;20020;-47
2022/11/13 11:22:36;;;;;;;10.35;6.93;;;15.40;99.90;;;;;;5106405;28;20075;-47
2022/11/13 11:25:36;;;;;;;8.15;6.68;;;15.50;99.90;;;;;;5106432;28;20497;-47
2022/11/13 11:28:11;;;;;;;9.02;7.43;;;15.80;99.90;;;;;;5096995;28;20097;-48
2022/11/13 11:30:51;;;;;;;8.50;6.90;;;15.80;99.90;;;;;;5093525;28;20039;-48
2022/11/13 11:33:26;;;;;;;8.10;6.10;;;15.70;99.90;;;;;;5113998;27;20027;-48
2022/11/13 11:36:10;;;;;;;7.93;6.50;;;16.00;99.90;;;;;;5113796;27;20042;-48
2022/11/13 11:39:28;;;;;;;9.25;6.50;;;16.10;99.90;;;;;;5110584;27;20032;-49
2022/11/13 11:42:03;;;;;;;7.68;6.40;;;16.10;99.90;;;;;;5068097;28;20677;-49
2022/11/13 11:44:50;;;;;;;8.30;6.30;;;16.30;99.90;;;;;;5111042;27;20268;-49
2022/11/13 11:47:17;;;;;;;8.80;6.45;;;16.30;99.90;;;;;;5108745;27;20390;-49
2022/11/13 11:49:43;;;;;;;7.68;5.85;;;16.30;99.90;;;;;;5106753;28;20435;-49
2022/11/13 11:52:35;;;;;;;8.40;6.20;;;16.20;99.90;;;;;;5099794;28;20055;-48
2022/11/13 11:55:08;;;;;;;7.63;5.90;;;16.10;99.90;;;;;;5103664;28;20031;-51
2022/11/13 11:58:10;;;;;;;7.57;5.45;;;16.30;99.90;;;;;;5104406;28;20085;-48
2022/11/13 12:00:42;;;;;;;6.95;5.13;;;16.20;99.90;;;;;;5077717;28;21481;-48
2022/11/13 12:03:45;;;;;;;7.20;5.53;;;16.20;99.90;;;;;;5101310;28;20368;-49
2022/11/13 12:06:31;;;;;;;7.70;5.60;;;16.10;99.90;;;;;;5098887;28;20044;-51
2022/11/13 12:09:19;;;;;;;7.75;5.72;;;16.10;99.90;;;;;;5100626;28;20042;-49
2022/11/13 12:11:52;;;;;;;7.53;5.28;;;16.20;99.90;;;;;;5100961;28;20047;-49
2022/11/13 12:14:46;;;;;;;7.32;5.47;;;16.30;99.90;;;;;;5084779;28;20043;-49
2022/11/13 12:17:19;;;;;;;7.72;6.05;;;16.50;99.90;;;;;;5101135;28;20089;-48
2022/11/13 12:19:55;;;;;;;7.28;5.47;;;16.80;99.90;;;;;;5105206;28;20036;-52
2022/11/13 12:22:38;;;;;;;6.47;4.90;;;16.80;99.90;;;;;;5105078;28;20035;-49
2022/11/13 12:25:23;;;;;;;8.93;5.60;;;17.00;99.90;;;;;;5087096;28;20051;-51
2022/11/13 12:28:32;;;;;;;7.05;4.70;;;17.10;99.90;;;;;;5108627;28;20359;-48
2022/11/13 12:31:38;;;;;;;7.78;4.90;;;17.20;99.90;;;;;;5000883;28;20034;-52
2022/11/13 12:34:06;;;;;;;7.30;5.03;;;17.20;99.90;;;;;;5101691;28;20043;-48
2022/11/13 12:36:33;;;;;;;5.97;4.57;;;17.20;99.90;;;;;;5106844;28;20032;-49
2022/11/13 12:39:06;;;;;;;6.88;4.97;;;17.10;99.90;;;;;;5105316;28;20035;-48
2022/11/13 12:41:44;;;;;;;7.30;4.40;;;17.30;99.90;;;;;;5104320;28;20112;-48
2022/11/13 12:44:29;;;;;;;6.45;4.65;;;17.20;99.90;;;;;;5108812;28;20039;-47
2022/11/13 12:46:59;;;;;;;7.40;5.20;;;17.20;99.90;;;;;;5101618;28;20055;-48
2022/11/13 12:49:27;;;;;;;6.43;5.13;;;17.20;99.90;;;;;;5091001;28;20440;-46
2022/11/13 12:52:02;;;;;;;6.60;4.90;;;17.00;99.90;;;;;;5108509;28;20075;-49